Newtown, North Dakota
Current Conditions -  °F | °C
As of 12:55 PM on Monday 20 Oct 2014 (Local Time) from K08D Reporting Station
Clear Clear  
Wind Chill: 64°   Ceiling: Unl
Heat Index: 64°   Visibility: 10mi
Dew Point: 39°   Wind: 21mph
Humidity: 40%   Direction: 180°S
Pressure: 29.96"   Gusts: 24mph
Location:  47.9603°N, 102.491°W
Report Text: K08D 201755Z AUTO 18018G21KT 10SM CLR 18/04 A2996 RMK AO2
Loading
Personal Weather Stations






























Interactive Weather Map
Tropical Storm Tracking
New forecast layout! Learn more

10-Day Weather Forecast

Advertisements
Track Severe Weather on mobile